Time;durP1;ratioP1;P1;durP2;ratioP2;P2;SDS_P1;SDS_P2;PMS_P1;PMS_P2;Temp;Humidity;BMP_temperature;BMP_pressure;BME280_temperature;BME280_humidity;BME280_pressure;Samples;Min_cycle;Max_cycle;Signal;HPM_P1;HPM_P2
2022/12/15 00:39:45;;;;;;;1.88;0.30;;;17.30;68.10;;;;;;4934061;29;20034;-68
2022/12/15 00:42:11;;;;;;;0.20;0.20;;;17.30;68.10;;;;;;4934072;29;20454;-68
2022/12/15 00:44:36;;;;;;;3.10;0.63;;;17.30;68.20;;;;;;4935223;29;20434;-68
2022/12/15 00:47:03;;;;;;;2.83;0.30;;;17.30;68.10;;;;;;4935227;29;20027;-68
2022/12/15 01:22:35;;;;;;;0.45;0.30;;;17.40;68.40;;;;;;4977087;28;20081;-68
2022/12/15 01:25:01;;;;;;;0.40;0.13;;;17.40;68.40;;;;;;4959513;28;20015;-68
2022/12/15 01:27:26;;;;;;;1.13;0.43;;;17.40;68.50;;;;;;4976749;28;20433;-68
2022/12/15 01:29:52;;;;;;;0.55;0.32;;;17.40;68.40;;;;;;4970135;28;20485;-68
2022/12/15 01:32:18;;;;;;;1.70;0.35;;;17.40;68.40;;;;;;4996223;28;20034;-68
2022/12/15 01:34:43;;;;;;;0.43;0.30;;;17.40;68.30;;;;;;4995881;28;20029;-68
2022/12/15 01:37:09;;;;;;;0.50;0.30;;;17.40;68.30;;;;;;4996163;28;20042;-68
2022/12/15 01:42:19;;;;;;;0.73;0.32;;;17.50;68.50;;;;;;4996089;28;20136;-68
2022/12/15 01:44:46;;;;;;;1.65;0.38;;;17.50;68.50;;;;;;4995860;28;20065;-68
2022/12/15 01:47:12;;;;;;;0.20;0.20;;;17.40;68.50;;;;;;4978842;28;20033;-68
2022/12/15 01:49:37;;;;;;;2.67;0.30;;;17.40;68.50;;;;;;4978280;28;20034;-68
2022/12/15 01:52:04;;;;;;;0.28;0.20;;;17.50;68.50;;;;;;4978595;28;20026;-68
2022/12/15 01:54:40;;;;;;;4.50;0.43;;;17.40;68.60;;;;;;4995866;28;20433;-68
2022/12/15 01:57:07;;;;;;;0.30;0.20;;;17.40;68.50;;;;;;4978432;28;20090;-68
2022/12/15 01:59:37;;;;;;;0.82;0.40;;;17.40;68.50;;;;;;4978492;28;20010;-68
2022/12/15 02:02:02;;;;;;;0.30;0.30;;;17.40;68.40;;;;;;4978359;28;20038;-68
2022/12/15 02:04:28;;;;;;;0.25;0.20;;;17.50;68.50;;;;;;4978236;28;20027;-68
2022/12/15 02:06:54;;;;;;;0.20;0.20;;;17.50;68.50;;;;;;4977876;28;20405;-68
2022/12/15 02:09:19;;;;;;;0.13;0.13;;;17.40;68.50;;;;;;4995424;28;20074;-68
2022/12/15 02:12:00;;;;;;;0.10;0.10;;;17.40;68.50;;;;;;4978097;28;20041;-68
2022/12/15 02:14:57;;;;;;;1.05;0.50;;;17.40;68.50;;;;;;4995338;28;20018;-68
2022/12/15 02:17:36;;;;;;;0.90;0.20;;;17.50;68.50;;;;;;4995344;28;20551;-68
2022/12/15 02:20:18;;;;;;;2.17;0.40;;;17.40;68.40;;;;;;4978015;28;20033;-68
2022/12/15 02:23:21;;;;;;;1.45;0.30;;;17.40;68.40;;;;;;4978689;28;20022;-68
2022/12/15 02:25:58;;;;;;;1.50;0.30;;;17.40;68.40;;;;;;4995215;28;20397;-68
2022/12/15 02:28:42;;;;;;;0.20;0.17;;;17.50;68.50;;;;;;4995252;28;20113;-68
2022/12/15 02:34:24;;;;;;;0.55;0.20;;;17.40;68.40;;;;;;4960994;28;20045;-68
2022/12/15 02:37:08;;;;;;;0.52;0.22;;;17.40;68.40;;;;;;4983057;28;20044;-68
2022/12/15 02:39:33;;;;;;;2.05;0.38;;;17.50;68.50;;;;;;4961563;28;20398;-68
2022/12/15 02:41:59;;;;;;;0.75;0.40;;;17.40;68.40;;;;;;4994887;28;20030;-68
2022/12/15 02:44:27;;;;;;;1.45;0.20;;;17.40;68.50;;;;;;4995111;28;20030;-68
2022/12/15 02:46:57;;;;;;;2.75;0.30;;;17.50;68.70;;;;;;4994827;28;20022;-68
2022/12/15 02:49:28;;;;;;;0.30;0.30;;;17.40;68.70;;;;;;4977467;28;20396;-68
2022/12/15 02:52:08;;;;;;;0.20;0.20;;;17.50;68.80;;;;;;4994628;28;20432;-68
2022/12/15 02:54:50;;;;;;;0.55;0.20;;;17.50;68.80;;;;;;4994682;28;20022;-68
2022/12/15 02:57:38;;;;;;;0.50;0.25;;;17.50;68.80;;;;;;4977464;28;20493;-68
2022/12/15 03:00:06;;;;;;;0.98;0.20;;;17.50;68.70;;;;;;4979924;28;20073;-68
2022/12/15 03:02:33;;;;;;;1.75;0.40;;;17.50;68.70;;;;;;4961344;28;20025;-68
2022/12/15 03:04:58;;;;;;;0.32;0.20;;;17.50;68.70;;;;;;4961013;28;20030;-68
2022/12/15 03:07:27;;;;;;;0.52;0.35;;;17.50;68.70;;;;;;4960817;28;20026;-68
2022/12/15 03:09:57;;;;;;;0.52;0.20;;;17.50;68.70;;;;;;4977595;28;20116;-68
2022/12/15 03:12:23;;;;;;;0.38;0.20;;;17.50;68.60;;;;;;4961279;28;20485;-68
2022/12/15 03:14:48;;;;;;;0.20;0.20;;;17.50;68.60;;;;;;4994104;28;20027;-68
2022/12/15 03:17:14;;;;;;;1.52;0.13;;;17.50;68.60;;;;;;4994486;28;20524;-68
2022/12/15 03:19:39;;;;;;;1.65;0.30;;;17.50;68.60;;;;;;4993333;28;20497;-68
2022/12/15 03:22:05;;;;;;;1.45;0.22;;;17.50;68.50;;;;;;4994172;28;20481;-68
2022/12/15 03:24:31;;;;;;;0.85;0.30;;;17.50;68.50;;;;;;4994289;28;20503;-68
2022/12/15 03:26:56;;;;;;;0.30;0.25;;;17.50;68.50;;;;;;4993817;28;20023;-68
2022/12/15 03:29:22;;;;;;;0.75;0.20;;;17.50;68.50;;;;;;4993933;28;20038;-68
2022/12/15 03:31:48;;;;;;;1.80;0.20;;;17.60;68.60;;;;;;4994144;28;20022;-68
2022/12/15 03:34:13;;;;;;;0.35;0.22;;;17.50;68.50;;;;;;4993687;28;20018;-68
2022/12/15 03:36:39;;;;;;;0.82;0.60;;;17.50;68.50;;;;;;4976696;28;20018;-68
2022/12/15 03:39:05;;;;;;;1.10;0.30;;;17.50;68.70;;;;;;4976417;28;20034;-68
2022/12/15 03:41:31;;;;;;;0.85;0.30;;;17.60;68.70;;;;;;4993751;28;20019;-68
2022/12/15 03:43:56;;;;;;;2.33;0.40;;;17.60;68.70;;;;;;4993701;28;20053;-68
2022/12/15 03:46:22;;;;;;;1.05;0.25;;;17.60;68.60;;;;;;4993857;28;20022;-68
2022/12/15 03:48:48;;;;;;;0.35;0.30;;;17.60;68.60;;;;;;4993343;28;20034;-68
2022/12/15 03:51:13;;;;;;;1.75;0.20;;;17.60;68.60;;;;;;4976319;28;20022;-68
2022/12/15 03:53:39;;;;;;;0.57;0.17;;;17.60;69.70;;;;;;4976532;28;20093;-68
2022/12/15 03:56:05;;;;;;;0.20;0.20;;;17.60;68.70;;;;;;4993503;28;20033;-68
2022/12/15 03:58:31;;;;;;;1.98;0.20;;;17.60;68.70;;;;;;4993572;28;20026;-68
2022/12/15 04:00:57;;;;;;;0.98;0.30;;;17.60;68.70;;;;;;4993337;28;20033;-68
2022/12/15 04:03:22;;;;;;;2.03;0.20;;;17.60;68.80;;;;;;4993252;28;20033;-68
2022/12/15 04:05:48;;;;;;;2.55;0.20;;;17.60;68.70;;;;;;4993353;28;20019;-68
2022/12/15 04:08:13;;;;;;;1.88;0.20;;;17.60;68.80;;;;;;4993312;28;20050;-68
2022/12/15 04:10:39;;;;;;;2.05;0.28;;;17.60;68.80;;;;;;4993409;28;20396;-68
2022/12/15 04:13:06;;;;;;;0.57;0.52;;;17.60;68.70;;;;;;4993320;28;20026;-68
2022/12/15 04:15:33;;;;;;;2.50;0.30;;;17.60;68.90;;;;;;4975965;28;20089;-68
2022/12/15 04:18:00;;;;;;;0.47;0.20;;;17.60;68.90;;;;;;4975651;28;20026;-68
2022/12/15 04:20:26;;;;;;;3.13;0.22;;;17.60;68.90;;;;;;4993208;28;20014;-68
2022/12/15 04:22:52;;;;;;;0.38;0.38;;;17.60;68.90;;;;;;4993146;28;20022;-68
2022/12/15 05:34:18;;;;;;;4.75;0.30;;;17.40;69.10;;;;;;4992661;28;20037;-68
2022/12/15 05:36:44;;;;;;;0.10;0.10;;;17.40;69.00;;;;;;4975086;28;20014;-68
2022/12/15 05:39:10;;;;;;;1.30;0.20;;;17.40;69.00;;;;;;4974999;28;20057;-68
2022/12/15 05:41:35;;;;;;;0.75;0.20;;;17.40;69.00;;;;;;4975646;28;20026;-68
2022/12/15 05:44:01;;;;;;;0.82;0.20;;;17.40;69.10;;;;;;4995945;28;20023;-68
2022/12/15 05:46:27;;;;;;;0.20;0.13;;;17.40;69.10;;;;;;4978449;28;20030;-68
2022/12/15 05:48:52;;;;;;;1.00;0.30;;;17.40;69.10;;;;;;4995757;28;20033;-68
2022/12/15 05:51:18;;;;;;;0.98;0.20;;;17.40;69.20;;;;;;4995964;28;20026;-68
2022/12/15 05:53:44;;;;;;;0.52;0.28;;;17.40;69.30;;;;;;4996091;28;20448;-68
2022/12/15 05:56:11;;;;;;;1.48;0.20;;;17.40;69.30;;;;;;4995652;28;20030;-68
2022/12/15 05:58:36;;;;;;;0.20;0.10;;;17.40;69.40;;;;;;4978113;28;20400;-68
2022/12/15 06:01:13;;;;;;;0.30;0.22;;;17.40;69.50;;;;;;4978150;28;20097;-68
2022/12/15 06:03:39;;;;;;;0.43;0.20;;;17.40;69.60;;;;;;4995737;28;20027;-68
2022/12/15 06:06:05;;;;;;;1.20;0.20;;;17.40;69.70;;;;;;4978078;28;20037;-68
2022/12/15 06:08:33;;;;;;;0.57;0.20;;;17.40;69.70;;;;;;4995634;28;20149;-68
2022/12/15 06:10:59;;;;;;;0.25;0.20;;;17.40;69.80;;;;;;4978100;28;20015;-68
2022/12/15 06:13:25;;;;;;;0.22;0.13;;;17.40;69.90;;;;;;4977917;28;20034;-68
2022/12/15 06:15:58;;;;;;;0.93;0.15;;;17.50;70.10;;;;;;4995587;28;20022;-68
2022/12/15 06:18:24;;;;;;;7.15;0.28;;;17.40;70.00;;;;;;4978095;28;20054;-68
2022/12/15 06:20:56;;;;;;;0.35;0.22;;;17.40;70.00;;;;;;4995400;28;20026;-68
2022/12/15 06:23:22;;;;;;;0.20;0.20;;;17.50;70.00;;;;;;4978063;28;20465;-68
2022/12/15 06:25:47;;;;;;;0.40;0.20;;;17.50;69.80;;;;;;4995529;28;20076;-68
2022/12/15 06:28:13;;;;;;;0.20;0.20;;;17.40;69.70;;;;;;4994811;28;20113;-68
2022/12/15 06:30:39;;;;;;;0.30;0.17;;;17.40;69.70;;;;;;4995156;28;20120;-68
2022/12/15 06:33:04;;;;;;;0.77;0.13;;;17.40;69.70;;;;;;4995091;28;20037;-68
2022/12/15 06:35:30;;;;;;;0.22;0.20;;;17.40;69.70;;;;;;4977832;28;20026;-68
2022/12/15 06:37:55;;;;;;;0.20;0.10;;;17.40;69.70;;;;;;4977655;28;20026;-68
2022/12/15 06:40:21;;;;;;;0.65;0.30;;;17.40;69.70;;;;;;4994982;28;20026;-68
2022/12/15 06:42:47;;;;;;;0.45;0.40;;;17.40;69.70;;;;;;4994881;28;20028;-68
2022/12/15 06:45:12;;;;;;;2.47;0.20;;;17.40;69.70;;;;;;4977675;28;20026;-68
2022/12/15 06:47:38;;;;;;;0.20;0.10;;;17.40;69.70;;;;;;4994613;28;20022;-68
2022/12/15 06:50:04;;;;;;;1.35;0.20;;;17.40;69.70;;;;;;4994480;28;20113;-68
2022/12/15 06:52:29;;;;;;;0.40;0.30;;;17.40;69.60;;;;;;4995364;28;20065;-68
2022/12/15 06:54:55;;;;;;;0.70;0.40;;;17.40;68.70;;;;;;4994197;28;20042;-67
2022/12/15 06:57:21;;;;;;;0.30;0.30;;;17.40;66.20;;;;;;4994907;28;20027;-66
2022/12/15 06:59:46;;;;;;;0.63;0.45;;;17.30;65.50;;;;;;4995396;28;20026;-68
2022/12/15 07:02:17;;;;;;;2.70;0.25;;;17.20;65.50;;;;;;4994830;28;20101;-68
2022/12/15 07:04:43;;;;;;;1.65;0.35;;;17.20;67.00;;;;;;4993849;28;20496;-68
2022/12/15 07:07:09;;;;;;;1.08;0.30;;;17.20;67.20;;;;;;4993634;28;20026;-68
2022/12/15 07:09:35;;;;;;;4.65;0.30;;;17.30;67.30;;;;;;4994850;28;20109;-68
2022/12/15 07:12:01;;;;;;;0.93;0.13;;;17.30;67.40;;;;;;4993745;28;20418;-68
2022/12/15 07:14:26;;;;;;;3.65;0.35;;;17.30;67.40;;;;;;4994881;28;20022;-68
2022/12/15 07:16:52;;;;;;;0.50;0.22;;;17.30;67.40;;;;;;4994733;28;20052;-68
2022/12/15 07:19:18;;;;;;;0.50;0.30;;;17.30;67.40;;;;;;4994581;28;20048;-68
2022/12/15 07:21:44;;;;;;;0.20;0.13;;;17.30;67.40;;;;;;4994927;28;20107;-68
2022/12/15 07:24:12;;;;;;;3.45;0.52;;;17.30;67.50;;;;;;4994683;28;20037;-68
2022/12/15 07:26:39;;;;;;;2.30;0.20;;;17.30;67.60;;;;;;4993222;28;20027;-68
2022/12/15 07:29:04;;;;;;;0.30;0.20;;;17.30;67.70;;;;;;4992213;28;20030;-68
2022/12/15 07:31:30;;;;;;;1.25;0.20;;;17.30;67.80;;;;;;4994588;28;20049;-68
2022/12/15 07:33:59;;;;;;;0.55;0.20;;;17.30;67.80;;;;;;4977322;28;20029;-68
2022/12/15 07:36:26;;;;;;;0.40;0.20;;;17.30;67.90;;;;;;4988839;28;20433;-68
2022/12/15 07:38:59;;;;;;;3.63;0.70;;;17.30;68.00;;;;;;4957942;28;20023;-68
2022/12/15 07:41:25;;;;;;;0.47;0.38;;;17.40;68.10;;;;;;4958353;28;20050;-68
2022/12/15 07:43:50;;;;;;;0.22;0.22;;;17.30;68.00;;;;;;4974777;28;20049;-68
2022/12/15 07:46:16;;;;;;;2.05;0.63;;;17.40;68.20;;;;;;4974988;28;20039;-68
2022/12/15 07:48:42;;;;;;;0.93;0.30;;;17.40;68.30;;;;;;4941501;28;20027;-68
2022/12/15 07:51:08;;;;;;;0.40;0.22;;;17.30;68.30;;;;;;4974885;28;20025;-68
2022/12/15 07:53:33;;;;;;;1.33;0.40;;;17.30;68.20;;;;;;4974427;28;20028;-68
2022/12/15 07:55:59;;;;;;;0.63;0.20;;;17.40;68.30;;;;;;4974424;28;20026;-68
2022/12/15 07:58:26;;;;;;;0.10;0.10;;;17.30;68.20;;;;;;4957337;28;20093;-68
2022/12/15 08:00:52;;;;;;;0.40;0.40;;;17.40;68.30;;;;;;4974689;28;20015;-68
2022/12/15 08:03:18;;;;;;;1.10;0.35;;;17.40;68.40;;;;;;4974659;28;20038;-68
2022/12/15 08:05:44;;;;;;;0.93;0.30;;;17.40;68.50;;;;;;4957166;28;20505;-68
2022/12/15 08:08:10;;;;;;;0.75;0.40;;;17.30;68.40;;;;;;4957126;28;20453;-68
2022/12/15 08:10:39;;;;;;;0.22;0.22;;;17.40;68.50;;;;;;4974412;28;20537;-68
2022/12/15 08:13:04;;;;;;;1.65;0.30;;;17.40;68.50;;;;;;4974447;28;20031;-68
2022/12/15 08:15:30;;;;;;;0.75;0.30;;;17.40;68.50;;;;;;4974342;28;20050;-68
2022/12/15 08:17:55;;;;;;;0.60;0.25;;;17.40;68.50;;;;;;4974269;28;20031;-68
2022/12/15 08:20:21;;;;;;;0.40;0.20;;;17.40;68.50;;;;;;4974320;28;20045;-68
2022/12/15 08:22:48;;;;;;;0.55;0.28;;;17.40;68.50;;;;;;4974252;28;20413;-68
2022/12/15 08:25:13;;;;;;;2.38;0.25;;;17.40;68.50;;;;;;4973993;28;20023;-68
2022/12/15 08:27:39;;;;;;;0.32;0.30;;;17.40;68.50;;;;;;4974138;28;20119;-68
2022/12/15 08:30:06;;;;;;;0.80;0.45;;;17.40;68.60;;;;;;4986379;28;20491;-68
2022/12/15 08:32:31;;;;;;;1.33;0.20;;;17.40;68.60;;;;;;4993497;28;20026;-68
2022/12/15 08:34:57;;;;;;;1.40;0.30;;;17.40;68.60;;;;;;4993486;28;20027;-68
2022/12/15 08:37:23;;;;;;;2.47;0.40;;;17.40;68.60;;;;;;4993186;28;20030;-68
2022/12/15 08:39:48;;;;;;;0.73;0.20;;;17.40;68.50;;;;;;4993171;28;20097;-68
2022/12/15 08:42:14;;;;;;;2.33;0.20;;;17.40;68.60;;;;;;4993565;28;20594;-68
2022/12/15 08:44:40;;;;;;;1.17;0.30;;;17.40;68.60;;;;;;4976119;28;20517;-68
2022/12/15 08:47:06;;;;;;;2.15;0.22;;;17.40;68.60;;;;;;4976299;28;20477;-68
2022/12/15 08:49:32;;;;;;;2.75;0.20;;;17.40;68.60;;;;;;4975860;28;20018;-68
2022/12/15 08:51:57;;;;;;;0.60;0.30;;;17.40;68.60;;;;;;4993277;28;20477;-68
2022/12/15 08:54:23;;;;;;;2.28;0.30;;;17.40;68.60;;;;;;4993189;28;20474;-68
2022/12/15 08:56:49;;;;;;;0.28;0.28;;;17.40;68.60;;;;;;4993341;28;20030;-68
2022/12/15 08:59:14;;;;;;;2.05;0.30;;;17.40;68.60;;;;;;4976211;28;20030;-68
2022/12/15 09:01:40;;;;;;;1.65;0.40;;;17.40;68.60;;;;;;4975778;28;20381;-69
2022/12/15 09:04:06;;;;;;;0.30;0.20;;;17.40;68.60;;;;;;4993449;28;20053;-68
2022/12/15 09:06:33;;;;;;;0.63;0.22;;;17.40;68.60;;;;;;4975878;28;20062;-68
2022/12/15 09:09:00;;;;;;;2.53;0.45;;;17.40;68.70;;;;;;4992945;28;20122;-68
2022/12/15 09:11:27;;;;;;;1.92;0.30;;;17.40;68.60;;;;;;4975690;28;20125;-69
2022/12/15 09:13:53;;;;;;;0.45;0.30;;;17.40;68.60;;;;;;4963149;28;20030;-69
2022/12/15 09:16:19;;;;;;;2.45;0.45;;;17.40;66.70;;;;;;4992840;28;20034;-69
2022/12/15 09:18:47;;;;;;;0.40;0.40;;;17.30;65.80;;;;;;4979558;28;20037;-69
2022/12/15 09:21:12;;;;;;;0.90;0.60;;;17.30;65.40;;;;;;4979876;28;20064;-70
2022/12/15 09:23:38;;;;;;;0.30;0.30;;;17.30;65.10;;;;;;4995195;28;20105;-68
2022/12/15 09:26:06;;;;;;;0.57;0.40;;;17.20;64.90;;;;;;4995643;28;20109;-68
2022/12/15 09:28:32;;;;;;;0.45;0.40;;;17.20;64.70;;;;;;4995145;28;20477;-68
2022/12/15 09:31:05;;;;;;;1.08;0.50;;;17.20;64.70;;;;;;4978506;28;20034;-68
2022/12/15 09:33:30;;;;;;;0.43;0.43;;;17.20;64.70;;;;;;4979191;28;20041;-68
2022/12/15 09:35:56;;;;;;;1.65;0.57;;;17.20;64.60;;;;;;4977629;28;20030;-68
2022/12/15 09:38:21;;;;;;;2.13;0.40;;;17.30;64.70;;;;;;4959325;28;20041;-68
2022/12/15 09:40:47;;;;;;;0.52;0.52;;;17.20;64.80;;;;;;4976865;28;20081;-69
2022/12/15 09:43:16;;;;;;;0.40;0.40;;;17.20;64.90;;;;;;4977215;28;20038;-68
2022/12/15 09:45:43;;;;;;;1.25;0.60;;;17.20;64.90;;;;;;4943996;28;20018;-68
2022/12/15 09:48:17;;;;;;;0.75;0.50;;;17.20;64.80;;;;;;4944034;28;20031;-68
2022/12/15 09:50:43;;;;;;;2.55;0.60;;;17.20;64.90;;;;;;4944158;28;20023;-68
2022/12/15 09:53:10;;;;;;;1.42;0.60;;;17.20;64.90;;;;;;4959752;28;20461;-68
2022/12/15 09:55:36;;;;;;;0.52;0.50;;;17.20;64.90;;;;;;4943755;28;20035;-68
2022/12/15 09:58:07;;;;;;;0.65;0.30;;;17.30;65.00;;;;;;4959533;28;20033;-68
2022/12/15 10:00:32;;;;;;;3.47;0.68;;;17.30;65.00;;;;;;4960019;28;20023;-70
2022/12/15 10:03:07;;;;;;;1.92;1.00;;;17.30;65.00;;;;;;4976916;28;20098;-69
2022/12/15 10:06:04;;;;;;;1.88;0.80;;;17.30;65.20;;;;;;4976087;28;20058;-70
2022/12/15 10:08:35;;;;;;;2.75;0.80;;;17.30;65.70;;;;;;4976592;28;20058;-73
2022/12/15 10:11:12;;;;;;;3.58;0.93;;;17.30;66.00;;;;;;4959633;28;20142;-72
2022/12/15 10:13:54;;;;;;;3.13;1.00;;;17.30;66.20;;;;;;4944624;28;20035;-72
2022/12/15 10:16:46;;;;;;;4.07;0.70;;;17.30;66.40;;;;;;4959689;28;20038;-72
2022/12/15 10:19:16;;;;;;;2.58;0.93;;;17.30;66.40;;;;;;4897807;29;20040;-72
2022/12/15 10:21:42;;;;;;;2.60;0.70;;;17.30;66.40;;;;;;4882777;29;20048;-72
2022/12/15 10:24:17;;;;;;;2.20;0.85;;;17.30;66.40;;;;;;4882316;29;20036;-72
2022/12/15 10:26:43;;;;;;;3.63;0.70;;;17.30;66.40;;;;;;4882266;29;20535;-72
2022/12/15 10:29:28;;;;;;;1.83;0.80;;;17.30;66.40;;;;;;4885881;29;20035;-72
2022/12/15 10:31:59;;;;;;;1.58;0.77;;;17.30;66.40;;;;;;4901849;29;20091;-72
2022/12/15 10:34:31;;;;;;;1.50;0.73;;;17.20;66.30;;;;;;4900825;29;20040;-72
2022/12/15 10:36:56;;;;;;;0.75;0.60;;;17.30;66.40;;;;;;4897720;29;20056;-72
2022/12/15 10:39:22;;;;;;;1.20;0.70;;;17.20;66.30;;;;;;4882131;29;20051;-72
2022/12/15 10:42:20;;;;;;;2.05;0.77;;;17.20;66.20;;;;;;4882029;29;20112;-72
2022/12/15 10:44:47;;;;;;;2.53;1.02;;;17.20;66.10;;;;;;4897142;29;20107;-72
2022/12/15 10:47:16;;;;;;;1.60;0.70;;;17.20;66.20;;;;;;4882457;29;20024;-72
2022/12/15 10:49:42;;;;;;;1.25;0.70;;;17.20;66.20;;;;;;4881669;29;20104;-72
2022/12/15 10:52:35;;;;;;;1.40;0.40;;;17.20;66.20;;;;;;4897437;29;20028;-72
2022/12/15 10:55:00;;;;;;;1.00;0.50;;;17.20;66.10;;;;;;4898349;28;20033;-72
2022/12/15 10:57:28;;;;;;;1.08;0.70;;;17.20;66.10;;;;;;4958178;28;20543;-72
2022/12/15 10:59:55;;;;;;;1.48;0.65;;;17.20;66.10;;;;;;4974704;28;20023;-72
2022/12/15 11:02:23;;;;;;;1.10;0.70;;;17.20;66.10;;;;;;4958618;28;20418;-72
2022/12/15 11:05:02;;;;;;;0.55;0.38;;;17.20;66.10;;;;;;4975381;28;20081;-72
2022/12/15 11:07:36;;;;;;;1.50;0.47;;;17.20;66.10;;;;;;4975361;28;20030;-72
2022/12/15 11:10:12;;;;;;;0.85;0.50;;;17.20;66.10;;;;;;4958395;28;20023;-72
2022/12/15 11:12:50;;;;;;;1.05;0.57;;;17.20;66.00;;;;;;4974395;28;20050;-72
2022/12/15 11:15:21;;;;;;;2.20;0.60;;;17.20;66.10;;;;;;4974546;28;20072;-72
2022/12/15 11:17:56;;;;;;;1.02;0.50;;;17.10;66.10;;;;;;4975074;28;20458;-72
2022/12/15 11:20:34;;;;;;;1.85;0.68;;;17.20;66.10;;;;;;4973967;28;20027;-72
2022/12/15 11:23:12;;;;;;;1.40;0.60;;;17.10;66.00;;;;;;4974023;28;20105;-78
2022/12/15 11:25:42;;;;;;;1.55;0.80;;;17.10;66.10;;;;;;4974079;28;20421;-78
2022/12/15 11:28:24;;;;;;;2.40;1.13;;;17.10;65.70;;;;;;4956699;28;20027;-78
2022/12/15 11:30:54;;;;;;;3.15;1.48;;;16.90;60.70;;;;;;4975836;28;20541;-76
2022/12/15 11:33:20;;;;;;;1.63;1.20;;;16.60;59.40;;;;;;4977328;28;20092;-75
2022/12/15 11:35:53;;;;;;;3.90;1.42;;;16.40;58.60;;;;;;4994324;28;20034;-74
2022/12/15 11:38:21;;;;;;;3.58;1.63;;;16.40;57.70;;;;;;4976959;28;20030;-75
2022/12/15 11:40:47;;;;;;;3.45;1.30;;;16.20;57.90;;;;;;4993983;28;20034;-77
2022/12/15 11:43:25;;;;;;;3.78;1.33;;;16.10;57.10;;;;;;4977073;28;20015;-77
2022/12/15 11:46:02;;;;;;;3.33;1.40;;;15.90;56.30;;;;;;4994320;28;20022;-76
2022/12/15 11:48:49;;;;;;;2.30;1.38;;;15.80;56.40;;;;;;4993979;28;20033;-77
2022/12/15 11:51:42;;;;;;;2.78;1.25;;;15.80;56.10;;;;;;4994335;28;20026;-76
2022/12/15 11:54:34;;;;;;;10.77;1.25;;;15.70;55.90;;;;;;4962799;28;20501;-74
2022/12/15 11:57:37;;;;;;;7.20;1.38;;;15.70;59.30;;;;;;4976711;28;20022;-75
2022/12/15 12:00:06;;;;;;;;;;;15.90;62.00;;;;;;4994643;28;20596;-75
2022/12/15 12:02:37;;;;;;;4.55;1.08;;;16.10;63.30;;;;;;4976446;28;20257;-74
2022/12/15 12:05:06;;;;;;;2.50;0.60;;;16.20;64.10;;;;;;4994206;28;20469;-74
2022/12/15 12:07:49;;;;;;;1.75;0.90;;;16.30;64.60;;;;;;4993617;28;20362;-74
2022/12/15 12:10:20;;;;;;;;;;;16.40;64.90;;;;;;4977138;28;20037;-76
2022/12/15 12:13:06;;;;;;;2.78;0.70;;;16.50;65.90;;;;;;4993879;28;20008;-76
2022/12/15 12:15:50;;;;;;;2.60;0.80;;;16.50;65.30;;;;;;4993244;28;20034;-77
2022/12/15 12:18:36;;;;;;;1.10;0.70;;;16.60;65.60;;;;;;4960246;28;20108;-76
2022/12/15 12:21:08;;;;;;;0.90;0.60;;;16.70;65.90;;;;;;4960202;28;20389;-75
2022/12/15 12:23:44;;;;;;;0.82;0.80;;;16.80;66.30;;;;;;4976393;28;20018;-76
2022/12/15 12:26:20;;;;;;;2.35;0.70;;;16.90;66.40;;;;;;4976271;28;20030;-75
2022/12/15 12:28:56;;;;;;;1.80;0.70;;;16.90;66.40;;;;;;4976111;28;20109;-76
2022/12/15 12:31:42;;;;;;;1.15;0.50;;;17.00;66.70;;;;;;4977136;28;20101;-76
2022/12/15 12:34:12;;;;;;;1.58;0.75;;;17.10;66.60;;;;;;4976862;28;20534;-76
2022/12/15 12:36:39;;;;;;;0.45;0.40;;;17.10;66.90;;;;;;4969126;28;20021;-75
2022/12/15 12:39:05;;;;;;;0.73;0.70;;;17.20;67.00;;;;;;4941081;28;20470;-75
2022/12/15 12:41:43;;;;;;;2.08;0.68;;;17.20;66.80;;;;;;4940899;28;20026;-75
2022/12/15 12:44:37;;;;;;;0.60;0.60;;;17.30;67.00;;;;;;4956607;28;20023;-77
2022/12/15 12:47:18;;;;;;;0.98;0.50;;;17.30;66.90;;;;;;4972392;28;20035;-76
2022/12/15 12:49:46;;;;;;;1.23;0.40;;;17.50;67.20;;;;;;4941804;28;20038;-77
2022/12/15 12:52:24;;;;;;;3.67;0.90;;;17.50;67.20;;;;;;4972055;28;20032;-75
2022/12/15 12:55:11;;;;;;;1.63;0.57;;;17.50;67.10;;;;;;4979139;28;20496;-74
2022/12/15 12:57:43;;;;;;;1.88;0.50;;;17.60;67.10;;;;;;4996576;28;20026;-75
2022/12/15 13:00:32;;;;;;;1.50;0.60;;;17.70;67.30;;;;;;4979104;28;20473;-75
2022/12/15 13:03:19;;;;;;;2.72;0.60;;;17.70;67.30;;;;;;4996248;28;20456;-75
2022/12/15 13:05:46;;;;;;;0.85;0.50;;;17.80;67.30;;;;;;4978829;28;20480;-75
2022/12/15 13:08:12;;;;;;;0.50;0.50;;;17.90;67.40;;;;;;4979079;28;20575;-75
2022/12/15 13:10:42;;;;;;;0.63;0.40;;;17.90;68.40;;;;;;4996560;28;20129;-75
2022/12/15 13:13:26;;;;;;;1.35;0.50;;;17.90;67.20;;;;;;4979170;28;20034;-75
2022/12/15 13:15:59;;;;;;;2.58;0.45;;;18.00;67.20;;;;;;4996173;28;20113;-75
2022/12/15 13:18:26;;;;;;;0.65;0.50;;;18.00;68.30;;;;;;4979328;28;20022;-76
2022/12/15 13:20:56;;;;;;;1.98;0.40;;;18.10;67.20;;;;;;4979471;28;20026;-76
2022/12/15 13:23:24;;;;;;;1.02;0.40;;;18.10;67.10;;;;;;4978920;28;20058;-76
2022/12/15 13:25:52;;;;;;;0.55;0.50;;;18.20;67.00;;;;;;4994990;28;20488;-76
2022/12/15 13:28:38;;;;;;;0.50;0.40;;;18.20;66.80;;;;;;4995299;28;20065;-76
2022/12/15 13:31:26;;;;;;;1.75;0.82;;;18.20;66.70;;;;;;4958586;28;20023;-76
2022/12/15 13:33:51;;;;;;;0.43;0.40;;;18.30;66.70;;;;;;4975441;28;20026;-76
2022/12/15 13:36:36;;;;;;;0.95;0.55;;;18.30;66.50;;;;;;4980181;28;20030;-76
2022/12/15 13:39:21;;;;;;;0.60;0.40;;;18.30;66.40;;;;;;4995329;28;20026;-76
2022/12/15 13:41:53;;;;;;;0.98;0.40;;;18.40;66.20;;;;;;4995404;28;20038;-76
2022/12/15 13:44:36;;;;;;;0.28;0.28;;;18.30;66.10;;;;;;4995946;28;20025;-76
2022/12/15 13:47:21;;;;;;;0.40;0.40;;;18.40;66.00;;;;;;4964853;28;20026;-76
2022/12/15 13:49:49;;;;;;;1.40;0.55;;;18.40;65.90;;;;;;4979446;28;20026;-76
2022/12/15 13:52:27;;;;;;;0.43;0.30;;;18.40;65.70;;;;;;4995894;28;20034;-76
2022/12/15 13:55:04;;;;;;;0.75;0.40;;;18.40;65.60;;;;;;4962459;28;20010;-76
2022/12/15 13:57:32;;;;;;;1.55;0.40;;;18.50;65.70;;;;;;4963536;28;20037;-76
2022/12/15 14:00:06;;;;;;;0.57;0.30;;;18.50;65.50;;;;;;4962687;28;20015;-76
2022/12/15 14:02:34;;;;;;;0.75;0.22;;;18.50;65.50;;;;;;4978764;28;20105;-76
2022/12/15 14:05:05;;;;;;;0.52;0.30;;;18.50;65.40;;;;;;4996247;28;20030;-76
2022/12/15 14:07:32;;;;;;;0.47;0.30;;;18.50;65.20;;;;;;4995309;28;20109;-76
2022/12/15 14:09:58;;;;;;;0.22;0.20;;;18.60;65.20;;;;;;4978107;28;20033;-77
2022/12/15 14:12:23;;;;;;;0.75;0.30;;;18.50;65.10;;;;;;4978059;28;20030;-76
2022/12/15 14:14:49;;;;;;;0.65;0.40;;;18.60;65.00;;;;;;4978109;28;20054;-76
2022/12/15 14:17:16;;;;;;;0.70;0.40;;;18.60;64.90;;;;;;4978324;28;20105;-76
2022/12/15 14:19:46;;;;;;;0.28;0.28;;;18.60;64.80;;;;;;4961782;28;20084;-76
2022/12/15 14:22:22;;;;;;;0.60;0.50;;;18.60;64.80;;;;;;4978222;28;20462;-76
2022/12/15 14:24:48;;;;;;;0.32;0.20;;;18.60;64.80;;;;;;4961722;28;20393;-76
2022/12/15 14:27:24;;;;;;;0.50;0.30;;;18.60;64.70;;;;;;4961793;28;20027;-76
2022/12/15 14:29:50;;;;;;;0.30;0.30;;;18.60;64.70;;;;;;4977966;28;20493;-76
2022/12/15 14:32:15;;;;;;;0.82;0.40;;;18.70;64.60;;;;;;4977604;28;20081;-76
2022/12/15 14:34:41;;;;;;;1.20;0.50;;;18.70;64.60;;;;;;4977830;28;20034;-76
2022/12/15 14:37:09;;;;;;;0.45;0.22;;;18.70;64.40;;;;;;4977771;28;20034;-76
2022/12/15 14:39:36;;;;;;;0.77;0.30;;;18.70;64.30;;;;;;4977507;28;20030;-77
2022/12/15 14:42:03;;;;;;;0.20;0.20;;;18.70;64.30;;;;;;4977354;28;20022;-77
2022/12/15 14:44:44;;;;;;;0.45;0.30;;;18.70;64.20;;;;;;4977839;28;20023;-77
2022/12/15 14:47:36;;;;;;;0.65;0.13;;;18.70;64.10;;;;;;4977717;28;20026;-77
2022/12/15 14:50:02;;;;;;;0.20;0.20;;;18.70;64.20;;;;;;4975681;28;20038;-77
2022/12/15 14:52:38;;;;;;;0.25;0.20;;;18.80;64.20;;;;;;4977436;28;20496;-77
2022/12/15 14:55:37;;;;;;;0.30;0.20;;;18.80;64.10;;;;;;4977428;28;20034;-77
2022/12/15 14:58:38;;;;;;;0.75;0.20;;;18.80;64.10;;;;;;4977236;28;20493;-77
2022/12/15 15:01:36;;;;;;;0.75;0.35;;;18.80;64.10;;;;;;4934689;29;20024;-76
2022/12/15 15:04:03;;;;;;;0.10;0.10;;;18.80;63.90;;;;;;4920868;29;20434;-77
2022/12/15 15:06:36;;;;;;;0.17;0.17;;;18.80;63.80;;;;;;4903172;29;20128;-77
2022/12/15 15:09:18;;;;;;;0.50;0.20;;;18.80;63.70;;;;;;4903248;29;20146;-77
2022/12/15 15:11:44;;;;;;;0.57;0.30;;;18.80;63.70;;;;;;4904878;29;20106;-77
2022/12/15 15:14:27;;;;;;;0.55;0.30;;;18.80;63.70;;;;;;4902298;29;20494;-77
2022/12/15 15:17:23;;;;;;;0.30;0.30;;;18.90;63.70;;;;;;4902916;29;20055;-76
2022/12/15 15:19:59;;;;;;;0.35;0.30;;;18.90;63.70;;;;;;4930916;29;20063;-77
2022/12/15 15:22:25;;;;;;;0.20;0.13;;;18.90;63.60;;;;;;4902870;29;20047;-77
2022/12/15 15:24:51;;;;;;;0.30;0.20;;;18.90;63.50;;;;;;4933905;29;20028;-77
2022/12/15 15:27:29;;;;;;;0.17;0.17;;;18.90;63.50;;;;;;4918610;29;20035;-77
2022/12/15 15:30:16;;;;;;;0.15;0.15;;;18.90;63.40;;;;;;4933824;29;20055;-76
2022/12/15 15:32:53;;;;;;;0.30;0.20;;;18.90;63.30;;;;;;4934025;29;20035;-77